Oshawa Airport
CYOO : now visible

Airfield :











YOU CAN JOIN US ON...

 
LOGIN :

Register | Disclaimer

   EN    FR    IT 

 









Legend :    VFR   Marginal VFR   IFR   Intensive IFR   Very Intensive IFR
Visi :
Ceiling :
>= 8 km
>= 3000ft
5 to 8 km
1000 to 3000 ft
1500m to 5 km
500 to 1000 ft
800 to 1500m
200 to 500 ft
< 800m
< 200 ft
Symbols :   Thunderstorms  Fog  Heavy snow  Heavy precipitations  Wind > 20 kt






- Airport Elevation : 459 ft
- IATA code : YOO


CYOO - Oshawa

CURRENT METAR :
  • 101330Z AUTO 30023G33KT 9SM FEW020 BKN049 BKN065 02/M01 A2947 RMK SLP987

EXPIRED METARs :
  • 101312Z AUTO 31018G28KT 9SM -RA FEW021 BKN047 OVC055 02/M01 A2947 RMK SLP986
  • 101306Z AUTO 31020G25KT 9SM -RASN FEW020 SCT027 BKN047 OVC055 02/M01 A2947 RMK SLP985
  • 101256Z AUTO 30014G30KT 9SM -SN SCT020 BKN028 BKN050 OVC060 02/M01 A2947 RMK SLP984
  • 101246Z AUTO 30018G27KT 6SM -SN BKN022 BKN030 OVC038 01/M02 A2946 RMK SLP982
  • 101233Z AUTO 30015G24KT 9SM -RASN BKN020 OVC025 01/M02 A2946 RMK SLP981
  • 101202Z AUTO 30019G26KT 9SM -SN BKN020 OVC033 01/M02 A2944 RMK SLP977
  • 101149Z AUTO 29016G26KT 6SM -SN BKN018 BKN029 OVC037 01/M01 A2944 RMK SLP975
  • 101135Z AUTO 30017G25KT 4SM -SN BKN021 OVC027 01/M02 A2943 RMK SLP971
  • 101122Z AUTO 30016G25KT 9SM -UP BKN021 OVC026 01/M02 A2942 RMK SLP969
  • 101108Z AUTO 30017G23KT 9SM BKN022 OVC028 01/M02 A2942 RMK SLP967
  • 101058Z AUTO 29018G30KT 9SM -SN -UP BKN024 OVC034 01/M02 A2941 RMK SLP964
  • 101050Z AUTO 30019G33KT 9SM -SN BKN023 OVC029 01/M02 A2940 RMK SLP962
  • 101035Z AUTO 30019G27KT 9SM -SN -UP BKN025 OVC055 01/M02 A2939 RMK SLP959

TAF TAF CYOO
Valid from the 10 at 14:00 until the 11 at 02:00 UTC


101338Z 1014/1102 31015G30KT P6SM SCT020 BKN040
TEMPO 1014/1018 P6SM -SHRASN BKN020 BKN040
FM102300 30015G25KT P6SM FEW040
BECMG 1023/1101 30012KT RMK FCST BASED ON AUTO OBS. NXT FCST BY 102000Z



MET'MAP, your aeronautical weather chart ! - Copyright ORBIFLY December 2007 - Disclaimer

ORBIFLY MET'MAP TEAM :

Programming & Development : Alexandra Zaïnal
Concept & original design : Baudouin d'Aumeries
Assistance for programming : Marc-Olivier Méhu
Technical & hardware support : Manuel Goepfert

Contact : metmap@orbifly.com




SOURCES & CREDITS :

   NOAA       Earth
Advisory